createdAt,value
2022-09-18T00:00:55.404Z,93482.13
2022-09-18T00:01:56.995Z,93501.78
2022-09-18T00:02:58.735Z,93501.06
2022-09-18T00:04:03.555Z,93507.88
2022-09-18T00:05:05.559Z,93507.56
2022-09-18T00:06:13.282Z,93520.88
2022-09-18T00:07:14.862Z,93525.03
2022-09-18T00:08:16.612Z,93523.78
2022-09-18T00:09:18.273Z,93524.13
2022-09-18T00:10:19.829Z,93551.81
2022-09-18T00:11:23.841Z,93542.38
2022-09-18T00:12:25.445Z,93541.03
2022-09-18T00:13:26.978Z,93537.09
2022-09-18T00:14:28.519Z,93548.44
2022-09-18T00:15:30.096Z,93529.25
2022-09-18T00:16:32.083Z,93553.34
2022-09-18T00:17:33.932Z,93564.41
2022-09-18T00:18:35.862Z,93552.47
2022-09-18T00:19:37.500Z,93561.66
2022-09-18T00:20:39.061Z,93551.91
2022-09-18T00:21:42.930Z,93566.09
2022-09-18T00:22:44.644Z,93576.59
2022-09-18T00:23:47.093Z,93575.13
2022-09-18T00:24:48.631Z,93577.09
2022-09-18T00:25:50.140Z,93574.31
2022-09-18T00:26:51.731Z,93580.94
2022-09-18T00:27:53.276Z,93589.81
2022-09-18T00:28:55.484Z,93593.38
2022-09-18T00:29:56.976Z,93593.38
2022-09-18T00:31:17.389Z,93597.06
2022-09-18T00:32:19.128Z,93591.00
2022-09-18T00:33:20.917Z,93611.25
2022-09-18T00:34:22.483Z,93606.97
2022-09-18T00:35:24.020Z,93608.31
2022-09-18T00:36:26.016Z,93618.81
2022-09-18T00:37:28.327Z,93606.25
2022-09-18T00:38:34.111Z,93619.56
2022-09-18T00:39:35.958Z,93619.44
2022-09-18T00:40:37.822Z,93623.00
2022-09-18T00:41:41.511Z,93631.09
2022-09-18T00:42:44.271Z,93612.47
2022-09-18T00:43:46.084Z,93629.34
2022-09-18T00:44:49.497Z,93625.03
2022-09-18T00:46:33.846Z,93646.88
2022-09-18T00:47:42.219Z,93633.59
2022-09-18T00:49:04.673Z,93634.50
2022-09-18T00:50:21.968Z,93645.56
2022-09-18T00:51:25.006Z,93677.88
2022-09-18T00:52:36.956Z,93662.53
2022-09-18T00:53:41.952Z,93672.28
2022-09-18T00:54:48.664Z,93682.91
2022-09-18T00:55:50.228Z,93688.50
2022-09-18T00:56:57.509Z,93707.66
2022-09-18T00:58:02.037Z,93701.75
2022-09-18T00:59:07.258Z,93701.19
2022-09-18T01:00:12.625Z,93708.56
2022-09-18T01:01:14.274Z,93701.63
2022-09-18T01:02:16.125Z,93718.16
2022-09-18T01:03:17.740Z,93710.78
2022-09-18T01:04:19.243Z,93718.59
2022-09-18T01:05:42.801Z,93727.47
2022-09-18T01:06:54.108Z,93742.38
2022-09-18T01:08:10.577Z,93738.22
2022-09-18T01:09:28.040Z,93754.75
2022-09-18T01:10:55.600Z,93767.16
2022-09-18T01:12:42.031Z,93781.19
2022-09-18T01:14:12.647Z,93797.50
2022-09-18T01:15:59.172Z,93784.38
2022-09-18T01:17:12.026Z,93793.50
2022-09-18T01:18:22.480Z,93791.16
2022-09-18T01:19:50.014Z,93803.28
2022-09-18T01:21:13.584Z,93807.97
2022-09-18T01:22:42.888Z,93816.38
2022-09-18T01:24:12.702Z,93813.88
2022-09-18T01:25:19.958Z,93812.06
2022-09-18T01:26:46.367Z,93814.13
2022-09-18T01:28:27.232Z,93836.56
2022-09-18T01:29:59.712Z,93840.81
2022-09-18T01:31:06.741Z,93834.16
2022-09-18T01:32:15.505Z,93840.81
2022-09-18T01:33:30.710Z,93847.56
2022-09-18T01:34:34.757Z,93846.97
2022-09-18T01:35:43.431Z,93848.91
2022-09-18T01:36:51.295Z,93856.00
2022-09-18T01:38:18.754Z,93854.75
2022-09-18T01:39:40.156Z,93869.38
2022-09-18T01:40:48.756Z,93861.47
2022-09-18T01:41:52.104Z,93885.53
2022-09-18T01:42:59.156Z,93881.06
2022-09-18T01:44:08.420Z,93871.75
2022-09-18T01:45:19.491Z,93870.56
2022-09-18T01:46:23.404Z,93894.59
2022-09-18T01:47:28.960Z,93902.88
2022-09-18T01:48:47.893Z,93895.63
2022-09-18T01:49:53.396Z,93896.47
2022-09-18T01:51:00.274Z,93894.47
2022-09-18T01:52:13.142Z,93897.59
2022-09-18T01:53:32.688Z,93897.84
2022-09-18T01:54:39.590Z,93900.38
2022-09-18T01:55:42.889Z,93905.78
2022-09-18T01:56:54.651Z,93919.03
2022-09-18T01:58:23.973Z,93920.41
2022-09-18T01:59:32.796Z,93920.31
2022-09-18T02:00:39.317Z,93927.88
2022-09-18T02:01:44.247Z,93925.81
2022-09-18T02:03:04.168Z,93932.16
2022-09-18T02:04:11.267Z,93924.66
2022-09-18T02:05:20.040Z,93932.09
2022-09-18T02:06:34.739Z,93936.38
2022-09-18T02:08:03.685Z,93942.00
2022-09-18T02:09:06.347Z,93947.81
2022-09-18T02:10:08.314Z,93962.81
2022-09-18T02:11:12.815Z,93967.03
2022-09-18T02:12:20.108Z,93964.41
2022-09-18T02:13:26.796Z,93968.41
2022-09-18T02:14:38.540Z,93962.84
2022-09-18T02:15:43.671Z,93965.97
2022-09-18T02:16:49.507Z,93970.44
2022-09-18T02:17:57.704Z,93966.41
2022-09-18T02:19:07.818Z,93962.69
2022-09-18T02:20:16.081Z,93955.88
2022-09-18T02:21:24.739Z,93957.09
2022-09-18T02:22:30.574Z,93960.22
2022-09-18T02:23:33.982Z,93964.34
2022-09-18T02:24:39.537Z,93968.72
2022-09-18T02:25:52.171Z,93973.00
2022-09-18T02:26:54.556Z,93978.50
2022-09-18T02:27:57.403Z,93980.16
2022-09-18T02:29:00.399Z,93986.59
2022-09-18T02:30:04.689Z,93988.91
2022-09-18T02:31:06.424Z,93989.31
2022-09-18T02:32:08.024Z,93993.59
2022-09-18T02:33:31.009Z,94008.50
2022-09-18T02:34:33.558Z,94019.63
2022-09-18T02:35:45.445Z,94026.38
2022-09-18T02:37:24.535Z,94025.88
2022-09-18T02:38:35.718Z,94037.00
2022-09-18T02:39:47.995Z,94044.66
2022-09-18T02:41:02.678Z,94038.81
2022-09-18T02:42:04.134Z,94035.78
2022-09-18T02:43:23.889Z,94027.63
2022-09-18T02:44:40.511Z,94038.63
2022-09-18T02:45:52.020Z,94042.97
2022-09-18T02:47:21.382Z,94047.28
2022-09-18T02:48:48.061Z,94058.28
2022-09-18T02:49:49.611Z,94052.94
2022-09-18T02:51:09.526Z,94052.13
2022-09-18T02:52:18.808Z,94050.31
2022-09-18T02:53:35.602Z,94059.28
2022-09-18T02:54:53.472Z,94057.78
2022-09-18T02:55:57.687Z,94061.50
2022-09-18T02:57:04.197Z,94058.69
2022-09-18T02:58:12.097Z,94061.56
2022-09-18T02:59:23.932Z,94058.31
2022-09-18T03:00:27.562Z,94062.25
2022-09-18T03:01:30.452Z,94052.44
2022-09-18T03:02:32.597Z,94062.84
2022-09-18T03:03:38.300Z,94067.63
2022-09-18T03:04:39.844Z,94070.47
2022-09-18T03:05:42.415Z,94063.00
2022-09-18T03:06:43.930Z,94072.47
2022-09-18T03:07:45.484Z,94080.53
2022-09-18T03:08:47.097Z,94082.09
2022-09-18T03:09:48.639Z,94079.88
2022-09-18T03:10:50.353Z,94080.66
2022-09-18T03:11:51.973Z,94081.44
2022-09-18T03:12:53.527Z,94084.03
2022-09-18T03:13:55.045Z,94078.44
2022-09-18T03:14:56.655Z,94080.31
2022-09-18T03:15:58.447Z,94077.69
2022-09-18T03:17:00.376Z,94078.34
2022-09-18T03:18:01.921Z,94081.13
2022-09-18T03:19:04.104Z,94077.81
2022-09-18T03:20:08.984Z,94084.50
2022-09-18T03:21:10.500Z,94099.81
2022-09-18T03:22:12.658Z,94095.34
2022-09-18T03:23:14.240Z,94102.25
2022-09-18T03:24:15.776Z,94093.28
2022-09-18T03:25:17.315Z,94096.84
2022-09-18T03:26:19.172Z,94100.56
2022-09-18T03:27:20.769Z,94097.22
2022-09-18T03:28:22.369Z,94101.91
2022-09-18T03:29:23.911Z,94104.31
2022-09-18T03:30:25.466Z,94104.88
2022-09-18T03:31:27.045Z,94104.88
2022-09-18T03:32:28.626Z,94101.31
2022-09-18T03:33:30.133Z,94096.50
2022-09-18T03:34:31.631Z,94104.31
2022-09-18T03:35:33.256Z,94106.22
2022-09-18T03:36:34.831Z,94107.53
2022-09-18T03:37:36.387Z,94118.34
2022-09-18T03:38:37.913Z,94109.25
2022-09-18T03:39:39.416Z,94111.06
2022-09-18T03:40:47.794Z,94108.84
2022-09-18T03:41:49.810Z,94110.88
2022-09-18T03:42:51.372Z,94105.84
2022-09-18T03:43:53.027Z,94103.25
2022-09-18T03:44:54.575Z,94107.75
2022-09-18T03:45:56.223Z,94111.06
2022-09-18T03:46:57.828Z,94113.47
2022-09-18T03:47:59.520Z,94117.94
2022-09-18T03:49:01.045Z,94105.84
2022-09-18T03:50:03.068Z,94113.47
2022-09-18T03:51:04.849Z,94117.00
2022-09-18T03:52:06.441Z,94117.03
2022-09-18T03:53:10.552Z,94128.59
2022-09-18T03:54:12.075Z,94127.50
2022-09-18T03:55:13.628Z,94122.84
2022-09-18T03:56:15.840Z,94129.38
2022-09-18T03:57:17.347Z,94139.41
2022-09-18T03:58:18.913Z,94128.41
2022-09-18T03:59:20.506Z,94135.31
2022-09-18T04:00:22.062Z,94147.59
2022-09-18T04:01:23.950Z,94150.22
2022-09-18T04:02:25.579Z,94144.06
2022-09-18T04:03:27.181Z,94153.56
2022-09-18T04:04:29.569Z,94148.72
2022-09-18T04:05:31.240Z,94154.66
2022-09-18T04:06:32.833Z,94158.75
2022-09-18T04:07:34.412Z,94160.59
2022-09-18T04:08:36.473Z,94159.13
2022-09-18T04:09:38.053Z,94158.38
2022-09-18T04:10:39.560Z,94162.44
2022-09-18T04:11:41.075Z,94156.91
2022-09-18T04:12:45.864Z,94163.63
2022-09-18T04:13:47.405Z,94173.09
2022-09-18T04:14:48.900Z,94177.00
2022-09-18T04:15:50.557Z,94177.56
2022-09-18T04:16:52.196Z,94171.44
2022-09-18T04:17:53.729Z,94183.34
2022-09-18T04:18:55.366Z,94174.81
2022-09-18T04:19:56.884Z,94177.75
2022-09-18T04:20:58.473Z,94185.59
2022-09-18T04:22:00.057Z,94193.41
2022-09-18T04:23:01.579Z,94188.19
2022-09-18T04:24:03.228Z,94182.81
2022-09-18T04:25:05.465Z,94185.41
2022-09-18T04:26:10.244Z,94177.03
2022-09-18T04:27:11.748Z,94185.22
2022-09-18T04:28:13.298Z,94182.44
2022-09-18T04:29:14.833Z,94184.09
2022-09-18T04:30:16.433Z,94189.31
2022-09-18T04:31:18.143Z,94190.44
2022-09-18T04:32:19.713Z,94197.28
2022-09-18T04:33:21.383Z,94187.06
2022-09-18T04:34:22.946Z,94190.97
2022-09-18T04:35:24.710Z,94188.16
2022-09-18T04:36:26.331Z,94199.69
2022-09-18T04:37:27.832Z,94208.66
2022-09-18T04:38:29.773Z,94206.03
2022-09-18T04:39:32.665Z,94201.63
2022-09-18T04:40:34.756Z,94213.13
2022-09-18T04:41:36.906Z,94210.13
2022-09-18T04:42:38.428Z,94212.22
2022-09-18T04:43:39.988Z,94219.84
2022-09-18T04:44:41.860Z,94214.44
2022-09-18T04:45:45.390Z,94208.84
2022-09-18T04:46:47.132Z,94223.19
2022-09-18T04:47:49.366Z,94233.97
2022-09-18T04:48:51.093Z,94226.16
2022-09-18T04:49:53.950Z,94225.97
2022-09-18T04:50:55.496Z,94225.06
2022-09-18T04:51:57.035Z,94225.44
2022-09-18T04:52:58.609Z,94232.50
2022-09-18T04:54:00.719Z,94236.22
2022-09-18T04:55:02.383Z,94234.72
2022-09-18T04:56:03.924Z,94239.56
2022-09-18T04:57:05.854Z,94246.66
2022-09-18T04:58:07.360Z,94241.06
2022-09-18T04:59:08.953Z,94256.69
2022-09-18T05:00:10.842Z,94249.25
2022-09-18T05:01:12.565Z,94252.63
2022-09-18T05:02:14.173Z,94256.69
2022-09-18T05:03:15.743Z,94259.69
2022-09-18T05:04:17.308Z,94253.91
2022-09-18T05:05:18.820Z,94267.88
2022-09-18T05:06:20.432Z,94262.66
2022-09-18T05:07:21.976Z,94262.66
2022-09-18T05:08:23.680Z,94267.13
2022-09-18T05:09:25.200Z,94273.66
2022-09-18T05:10:27.729Z,94278.13
2022-09-18T05:11:29.455Z,94288.72
2022-09-18T05:12:30.984Z,94291.72
2022-09-18T05:13:32.498Z,94295.78
2022-09-18T05:14:34.185Z,94303.06
2022-09-18T05:15:35.690Z,94300.63
2022-09-18T05:16:37.257Z,94310.91
2022-09-18T05:17:40.292Z,94313.31
2022-09-18T05:18:41.800Z,94309.22
2022-09-18T05:19:43.499Z,94300.47
2022-09-18T05:20:45.035Z,94315.91
2022-09-18T05:21:50.186Z,94313.88
2022-09-18T05:22:51.696Z,94308.47
2022-09-18T05:23:53.283Z,94305.84
2022-09-18T05:24:54.872Z,94309.59
2022-09-18T05:25:56.441Z,94310.50
2022-09-18T05:26:58.012Z,94304.75
2022-09-18T05:28:01.132Z,94315.53
2022-09-18T05:29:02.641Z,94312.91
2022-09-18T05:30:04.718Z,94315.16
2022-09-18T05:31:06.582Z,94305.47
2022-09-18T05:32:08.171Z,94308.47
2022-09-18T05:33:11.021Z,94303.63
2022-09-18T05:34:12.567Z,94308.84
2022-09-18T05:35:14.190Z,94312.00
2022-09-18T05:36:15.769Z,94310.69
2022-09-18T05:37:17.924Z,94323.19
2022-09-18T05:38:19.473Z,94321.50
2022-09-18T05:39:20.963Z,94328.19
2022-09-18T05:40:27.520Z,94333.44
2022-09-18T05:41:29.150Z,94327.63
2022-09-18T05:42:30.654Z,94336.25
2022-09-18T05:43:32.244Z,94328.41
2022-09-18T05:44:33.903Z,94337.53
2022-09-18T05:45:35.486Z,94337.31
2022-09-18T05:46:37.095Z,94336.81
2022-09-18T05:47:38.644Z,94340.13
2022-09-18T05:48:40.211Z,94332.31
2022-09-18T05:49:41.751Z,94331.56
2022-09-18T05:50:43.420Z,94336.41
2022-09-18T05:51:46.355Z,94346.09
2022-09-18T05:52:48.424Z,94335.28
2022-09-18T05:53:50.004Z,94337.31
2022-09-18T05:54:51.527Z,94334.19
2022-09-18T05:55:53.180Z,94337.72
2022-09-18T05:56:54.815Z,94334.75
2022-09-18T05:57:58.056Z,94330.06
2022-09-18T05:58:59.624Z,94331.56
2022-09-18T06:00:01.283Z,94327.47
2022-09-18T06:01:04.626Z,94329.31
2022-09-18T06:02:06.254Z,94327.09
2022-09-18T06:03:11.715Z,94328.00
2022-09-18T06:04:13.493Z,94332.66
2022-09-18T06:05:15.148Z,94338.25
2022-09-18T06:06:17.027Z,94340.50
2022-09-18T06:07:18.561Z,94347.75
2022-09-18T06:08:20.314Z,94342.91
2022-09-18T06:09:22.135Z,94343.84
2022-09-18T06:10:24.364Z,94335.28
2022-09-18T06:11:26.045Z,94339.38
2022-09-18T06:12:27.571Z,94339.78
2022-09-18T06:13:29.127Z,94333.41
2022-09-18T06:14:30.624Z,94336.59
2022-09-18T06:15:33.326Z,94346.84
2022-09-18T06:16:38.598Z,94354.31
2022-09-18T06:17:41.886Z,94355.03
2022-09-18T06:18:43.481Z,94354.50
2022-09-18T06:19:45.667Z,94348.72
2022-09-18T06:20:58.476Z,94354.31
2022-09-18T06:22:00.068Z,94359.19
2022-09-18T06:23:02.446Z,94368.81
2022-09-18T06:24:04.305Z,94356.16
2022-09-18T06:25:06.274Z,94362.47
2022-09-18T06:26:12.699Z,94366.22
2022-09-18T06:27:16.158Z,94373.66
2022-09-18T06:28:17.716Z,94369.56
2022-09-18T06:29:19.224Z,94369.00
2022-09-18T06:30:20.814Z,94372.16
2022-09-18T06:31:22.451Z,94382.63
2022-09-18T06:32:24.123Z,94378.72
2022-09-18T06:33:25.644Z,94385.22
2022-09-18T06:34:27.229Z,94385.56
2022-09-18T06:35:29.214Z,94384.09
2022-09-18T06:36:30.720Z,94387.63
2022-09-18T06:37:32.264Z,94397.91
2022-09-18T06:38:33.809Z,94389.69
2022-09-18T06:39:35.623Z,94396.03
2022-09-18T06:40:37.227Z,94394.16
2022-09-18T06:41:38.810Z,94392.69
2022-09-18T06:42:45.283Z,94404.03
2022-09-18T06:43:50.269Z,94397.13
2022-09-18T06:44:51.898Z,94396.03
2022-09-18T06:45:54.939Z,94393.78
2022-09-18T06:46:57.186Z,94394.91
2022-09-18T06:48:02.808Z,94403.88
2022-09-18T06:49:04.372Z,94397.34
2022-09-18T06:50:07.330Z,94402.72
2022-09-18T06:51:09.728Z,94402.38
2022-09-18T06:52:11.235Z,94407.63
2022-09-18T06:53:12.991Z,94400.53
2022-09-18T06:54:15.428Z,94407.97
2022-09-18T06:55:18.638Z,94402.75
2022-09-18T06:56:20.192Z,94407.81
2022-09-18T06:57:21.727Z,94410.59
2022-09-18T06:58:23.333Z,94422.16
2022-09-18T06:59:24.866Z,94409.09
2022-09-18T07:00:28.040Z,94414.09
2022-09-18T07:01:29.690Z,94413.19
2022-09-18T07:02:31.513Z,94421.41
2022-09-18T07:03:33.108Z,94405.38
2022-09-18T07:04:35.217Z,94410.78
2022-09-18T07:05:41.591Z,94412.28
2022-09-18T07:06:46.821Z,94413.19
2022-09-18T07:07:48.348Z,94419.38
2022-09-18T07:08:50.169Z,94420.84
2022-09-18T07:09:51.770Z,94413.56
2022-09-18T07:10:53.287Z,94416.38
2022-09-18T07:11:55.270Z,94416.19
2022-09-18T07:12:58.098Z,94422.91
2022-09-18T07:13:59.624Z,94418.63
2022-09-18T07:15:01.144Z,94421.78
2022-09-18T07:16:03.173Z,94413.19
2022-09-18T07:17:09.112Z,94429.44
2022-09-18T07:18:10.659Z,94427.00
2022-09-18T07:19:12.192Z,94424.00
2022-09-18T07:20:15.046Z,94431.09
2022-09-18T07:21:16.626Z,94421.41
2022-09-18T07:22:18.181Z,94422.91
2022-09-18T07:23:20.072Z,94429.75
2022-09-18T07:24:21.619Z,94424.72
2022-09-18T07:25:23.864Z,94427.19
2022-09-18T07:26:25.491Z,94426.63
2022-09-18T07:27:29.026Z,94436.13
2022-09-18T07:28:30.769Z,94428.25
2022-09-18T07:29:32.821Z,94437.22
2022-09-18T07:30:35.789Z,94432.56
2022-09-18T07:31:37.480Z,94437.22
2022-09-18T07:32:39.058Z,94434.41
2022-09-18T07:33:40.846Z,94438.31
2022-09-18T07:34:42.374Z,94436.66
2022-09-18T07:35:44.072Z,94441.50
2022-09-18T07:36:49.616Z,94441.50
2022-09-18T07:37:51.123Z,94442.81
2022-09-18T07:38:52.662Z,94447.44
2022-09-18T07:39:54.898Z,94439.28
2022-09-18T07:40:56.524Z,94437.97
2022-09-18T07:41:58.038Z,94450.44
2022-09-18T07:43:01.587Z,94445.59
2022-09-18T07:44:03.369Z,94448.22
2022-09-18T07:45:05.994Z,94444.28
2022-09-18T07:46:08.250Z,94446.94
2022-09-18T07:47:09.925Z,94444.91
2022-09-18T07:48:12.156Z,94443.78
2022-09-18T07:49:13.711Z,94447.06
2022-09-18T07:50:16.079Z,94447.66
2022-09-18T07:51:17.830Z,94452.69
2022-09-18T07:52:19.356Z,94454.72
2022-09-18T07:53:21.350Z,94449.91
2022-09-18T07:54:23.310Z,94447.50
2022-09-18T07:55:28.389Z,94449.00
2022-09-18T07:56:29.950Z,94451.03
2022-09-18T07:57:31.484Z,94448.81
2022-09-18T07:58:33.045Z,94446.94
2022-09-18T07:59:34.573Z,94460.56
2022-09-18T08:00:37.141Z,94459.41
2022-09-18T08:01:38.799Z,94465.78
2022-09-18T08:02:41.275Z,94463.91
2022-09-18T08:03:43.096Z,94461.31
2022-09-18T08:04:44.645Z,94455.72
2022-09-18T08:05:46.180Z,94463.16
2022-09-18T08:06:54.239Z,94464.28
2022-09-18T08:07:55.777Z,94464.66
2022-09-18T08:08:57.313Z,94456.47
2022-09-18T08:09:58.872Z,94450.13
2022-09-18T08:11:00.553Z,94461.66
2022-09-18T08:12:03.572Z,94454.59
2022-09-18T08:13:05.785Z,94460.72
2022-09-18T08:14:08.559Z,94459.41
2022-09-18T08:15:10.648Z,94461.09
2022-09-18T08:16:13.737Z,94457.00
2022-09-18T08:17:15.334Z,94461.69
2022-09-18T08:18:17.410Z,94460.19
2022-09-18T08:19:18.972Z,94460.19
2022-09-18T08:20:21.186Z,94460.94
2022-09-18T08:21:22.789Z,94455.88
2022-09-18T08:22:24.424Z,94455.88
2022-09-18T08:23:25.956Z,94459.75
2022-09-18T08:24:27.661Z,94455.69
2022-09-18T08:25:30.327Z,94454.00
2022-09-18T08:26:31.942Z,94457.91
2022-09-18T08:27:38.168Z,94449.34
2022-09-18T08:28:45.357Z,94448.41
2022-09-18T08:29:47.686Z,94448.97
2022-09-18T08:30:52.282Z,94456.06
2022-09-18T08:31:53.922Z,94454.53
2022-09-18T08:33:13.459Z,94448.59
2022-09-18T08:34:14.974Z,94448.22
2022-09-18T08:35:16.673Z,94448.03
2022-09-18T08:36:18.182Z,94445.78
2022-09-18T08:37:19.676Z,94444.88
2022-09-18T08:38:21.218Z,94450.47
2022-09-18T08:39:22.773Z,94453.06
2022-09-18T08:40:39.506Z,94454.00
2022-09-18T08:41:52.909Z,94445.97
2022-09-18T08:43:20.576Z,94455.69
2022-09-18T08:44:27.320Z,94454.56
2022-09-18T08:45:58.654Z,94449.88
2022-09-18T08:47:13.693Z,94457.56
2022-09-18T08:48:26.586Z,94453.06
2022-09-18T08:49:45.196Z,94456.59
2022-09-18T08:50:56.724Z,94464.25
2022-09-18T08:52:12.825Z,94462.19
2022-09-18T08:53:38.660Z,94454.16
2022-09-18T08:55:12.590Z,94459.19
2022-09-18T08:56:22.067Z,94451.53
2022-09-18T08:57:32.708Z,94452.44
2022-09-18T08:58:39.887Z,94463.84
2022-09-18T09:00:20.029Z,94460.84
2022-09-18T09:01:27.050Z,94466.84
2022-09-18T09:02:43.213Z,94468.16
2022-09-18T09:04:04.901Z,94468.91
2022-09-18T09:05:11.008Z,94488.13
2022-09-18T09:06:40.153Z,94476.94
2022-09-18T09:07:56.894Z,94472.84
2022-09-18T09:09:21.685Z,94482.16
2022-09-18T09:10:41.516Z,94482.53
2022-09-18T09:11:56.593Z,94479.22
2022-09-18T09:13:16.963Z,94488.91
2022-09-18T09:14:56.129Z,94492.59
2022-09-18T09:16:05.457Z,94507.16
2022-09-18T09:17:21.242Z,94502.31
2022-09-18T09:18:44.005Z,94512.03
2022-09-18T09:20:05.755Z,94513.16
2022-09-18T09:21:22.773Z,94501.19
2022-09-18T09:22:38.749Z,94502.31
2022-09-18T09:23:49.200Z,94508.88
2022-09-18T09:25:28.494Z,94510.16
2022-09-18T09:26:32.350Z,94524.34
2022-09-18T09:28:00.471Z,94522.50
2022-09-18T09:29:17.994Z,94522.88
2022-09-18T09:30:20.686Z,94520.59
2022-09-18T09:31:29.671Z,94520.44
2022-09-18T09:32:39.436Z,94531.06
2022-09-18T09:33:53.350Z,94523.59
2022-09-18T09:35:11.299Z,94517.63
2022-09-18T09:36:15.876Z,94524.69
2022-09-18T09:37:23.854Z,94523.19
2022-09-18T09:38:47.507Z,94535.88
2022-09-18T09:39:56.574Z,94531.41
2022-09-18T09:41:03.615Z,94532.72
2022-09-18T09:42:21.787Z,94536.84
2022-09-18T09:43:44.219Z,94541.53
2022-09-18T09:44:59.301Z,94544.50
2022-09-18T09:46:10.717Z,94543.00
2022-09-18T09:47:33.230Z,94566.50
2022-09-18T09:48:54.863Z,94557.75
2022-09-18T09:50:08.655Z,94555.69
2022-09-18T09:51:33.824Z,94549.53
2022-09-18T09:52:40.812Z,94548.78
2022-09-18T09:53:42.420Z,94555.66
2022-09-18T09:54:44.805Z,94542.63
2022-09-18T09:56:19.918Z,94544.50
2022-09-18T09:57:41.229Z,94545.25
2022-09-18T09:58:52.077Z,94543.94
2022-09-18T09:59:53.559Z,94544.47
2022-09-18T10:01:14.168Z,94544.09
2022-09-18T10:02:30.190Z,94547.84
2022-09-18T10:04:16.455Z,94544.69
2022-09-18T10:05:32.301Z,94547.84
2022-09-18T10:06:56.902Z,94554.94
2022-09-18T10:08:04.727Z,94546.53
2022-09-18T10:09:29.195Z,94552.72
2022-09-18T10:10:47.340Z,94553.09
2022-09-18T10:12:16.371Z,94554.91
2022-09-18T10:13:40.516Z,94558.31
2022-09-18T10:14:46.226Z,94559.06
2022-09-18T10:15:50.134Z,94551.41
2022-09-18T10:16:54.925Z,94562.78
2022-09-18T10:18:01.743Z,94561.28
2022-09-18T10:19:03.759Z,94564.25
2022-09-18T10:20:06.271Z,94570.97
2022-09-18T10:21:13.053Z,94559.41
2022-09-18T10:22:20.329Z,94559.97
2022-09-18T10:23:39.431Z,94560.72
2022-09-18T10:25:13.420Z,94578.03
2022-09-18T10:26:25.651Z,94569.09
2022-09-18T10:27:27.441Z,94572.88
2022-09-18T10:28:29.863Z,94574.53
2022-09-18T10:29:35.131Z,94579.22
2022-09-18T10:30:53.501Z,94587.78
2022-09-18T10:31:58.908Z,94582.19
2022-09-18T10:33:00.488Z,94575.28
2022-09-18T10:34:02.559Z,94580.69
2022-09-18T10:35:28.958Z,94586.66
2022-09-18T10:36:37.079Z,94575.09
2022-09-18T10:37:40.492Z,94585.94
2022-09-18T10:38:43.082Z,94573.59
2022-09-18T10:39:53.772Z,94576.94
2022-09-18T10:40:55.510Z,94589.25
2022-09-18T10:42:02.515Z,94580.88
2022-09-18T10:43:04.964Z,94580.88
2022-09-18T10:44:12.417Z,94575.84
2022-09-18T10:45:26.350Z,94586.09
2022-09-18T10:46:30.991Z,94579.22
2022-09-18T10:47:35.327Z,94574.00
2022-09-18T10:48:36.940Z,94580.31
2022-09-18T10:49:49.710Z,94585.19
2022-09-18T10:51:00.100Z,94594.13
2022-09-18T10:52:41.313Z,94594.09
2022-09-18T10:53:42.875Z,94582.19
2022-09-18T10:55:02.645Z,94592.25
2022-09-18T10:56:21.631Z,94596.34
2022-09-18T10:57:34.696Z,94592.44
2022-09-18T10:58:36.318Z,94594.88
2022-09-18T10:59:37.889Z,94604.53
2022-09-18T11:00:56.529Z,94604.53
2022-09-18T11:02:00.231Z,94600.88
2022-09-18T11:03:16.241Z,94599.69
2022-09-18T11:04:17.830Z,94596.00
2022-09-18T11:05:48.349Z,94602.69
2022-09-18T11:06:50.958Z,94600.66
2022-09-18T11:07:57.456Z,94594.88
2022-09-18T11:09:08.218Z,94599.69
2022-09-18T11:10:10.066Z,94609.59
2022-09-18T11:11:31.219Z,94605.28
2022-09-18T11:12:35.069Z,94600.88
2022-09-18T11:13:44.910Z,94607.91
2022-09-18T11:14:51.493Z,94595.63
2022-09-18T11:15:58.306Z,94609.03
2022-09-18T11:17:02.138Z,94604.94
2022-09-18T11:18:07.529Z,94598.97
2022-09-18T11:19:12.788Z,94597.66
2022-09-18T11:20:27.342Z,94612.81
2022-09-18T11:21:29.059Z,94611.66
2022-09-18T11:22:44.446Z,94608.69
2022-09-18T11:23:45.981Z,94606.84
2022-09-18T11:24:47.618Z,94607.97
2022-09-18T11:25:49.211Z,94606.47
2022-09-18T11:26:59.442Z,94607.75
2022-09-18T11:28:01.074Z,94613.94
2022-09-18T11:29:27.323Z,94609.06
2022-09-18T11:30:35.787Z,94606.47
2022-09-18T11:31:42.089Z,94613.94
2022-09-18T11:32:46.745Z,94604.59
2022-09-18T11:33:53.659Z,94599.19
2022-09-18T11:35:02.528Z,94599.34
2022-09-18T11:36:08.376Z,94604.22
2022-09-18T11:37:13.875Z,94602.72
2022-09-18T11:38:20.193Z,94612.97
2022-09-18T11:39:35.605Z,94606.84
2022-09-18T11:40:50.473Z,94610.38
2022-09-18T11:41:54.171Z,94616.53
2022-09-18T11:42:56.815Z,94609.06
2022-09-18T11:44:06.024Z,94612.06
2022-09-18T11:45:39.686Z,94610.94
2022-09-18T11:47:04.457Z,94612.25
2022-09-18T11:48:30.516Z,94614.66
2022-09-18T11:49:37.829Z,94611.66
2022-09-18T11:50:39.616Z,94601.63
2022-09-18T11:51:52.324Z,94612.03
2022-09-18T11:52:58.880Z,94615.03
2022-09-18T11:54:08.707Z,94614.66
2022-09-18T11:55:10.508Z,94611.13
2022-09-18T11:56:24.859Z,94615.25
2022-09-18T11:57:32.851Z,94607.59
2022-09-18T11:58:43.626Z,94604.94
2022-09-18T11:59:54.464Z,94613.56
2022-09-18T12:01:14.641Z,94615.59
2022-09-18T12:02:44.469Z,94619.91
2022-09-18T12:03:56.079Z,94612.06
2022-09-18T12:05:17.953Z,94613.19
2022-09-18T12:06:42.576Z,94607.97
2022-09-18T12:07:54.119Z,94606.44
2022-09-18T12:09:07.303Z,94610.56
2022-09-18T12:10:20.708Z,94607.00
2022-09-18T12:11:51.202Z,94601.63
2022-09-18T12:13:32.850Z,94602.34
2022-09-18T12:14:46.968Z,94605.69
2022-09-18T12:16:08.802Z,94607.22
2022-09-18T12:17:15.326Z,94610.91
2022-09-18T12:18:25.823Z,94606.28
2022-09-18T12:19:33.753Z,94610.56
2022-09-18T12:20:44.154Z,94612.81
2022-09-18T12:22:10.176Z,94610.19
2022-09-18T12:23:26.393Z,94605.31
2022-09-18T12:24:28.489Z,94605.16
2022-09-18T12:25:48.865Z,94609.81
2022-09-18T12:27:01.308Z,94606.06
2022-09-18T12:28:50.929Z,94612.06
2022-09-18T12:30:02.517Z,94612.59
2022-09-18T12:31:22.056Z,94606.63
2022-09-18T12:32:46.409Z,94611.31
2022-09-18T12:34:10.641Z,94615.25
2022-09-18T12:35:24.382Z,94626.81
2022-09-18T12:36:40.287Z,94620.06
2022-09-18T12:37:53.642Z,94620.25
2022-09-18T12:39:31.556Z,94625.50
2022-09-18T12:41:05.263Z,94629.59
2022-09-18T12:42:32.332Z,94617.25
2022-09-18T12:44:13.978Z,94623.22
2022-09-18T12:45:22.439Z,94624.00
2022-09-18T12:46:37.428Z,94622.88
2022-09-18T12:48:14.119Z,94624.00
2022-09-18T12:49:31.129Z,94631.09
2022-09-18T12:50:44.778Z,94625.88
2022-09-18T12:51:52.298Z,94624.38
2022-09-18T12:53:15.119Z,94622.50
2022-09-18T12:54:42.748Z,94608.28
2022-09-18T12:56:03.225Z,94618.41
2022-09-18T12:57:50.140Z,94620.97
2022-09-18T12:58:57.397Z,94616.31
2022-09-18T13:00:09.142Z,94616.09
2022-09-18T13:01:45.234Z,94617.78
2022-09-18T13:02:58.738Z,94612.75
2022-09-18T13:04:16.438Z,94611.81
2022-09-18T13:05:26.835Z,94612.56
2022-09-18T13:06:46.938Z,94612.41
2022-09-18T13:07:54.359Z,94619.09
2022-09-18T13:09:02.111Z,94610.50
2022-09-18T13:10:06.899Z,94623.03
2022-09-18T13:11:16.317Z,94617.97
2022-09-18T13:12:38.305Z,94616.47
2022-09-18T13:13:55.604Z,94621.88
2022-09-18T13:15:06.542Z,94615.56
2022-09-18T13:16:15.306Z,94621.75